sensor_id;sensor_type;location;lat;lon;timestamp;pressure;altitude;pressure_sealevel;temperature;humidity
51528;BME280;37612;51.768;21.590;2023-04-22T00:01:32;99961.73;;;5.72;64.10
51528;BME280;37612;51.768;21.590;2023-04-22T00:05:34;99963.79;;;5.61;63.94
51528;BME280;37612;51.768;21.590;2023-04-22T00:09:37;99966.19;;;5.50;63.88
51528;BME280;37612;51.768;21.590;2023-04-22T00:13:39;99958.19;;;5.42;63.83
51528;BME280;37612;51.768;21.590;2023-04-22T00:17:41;99958.59;;;5.38;63.83
51528;BME280;37612;51.768;21.590;2023-04-22T00:21:45;99953.11;;;5.36;64.15
51528;BME280;37612;51.768;21.590;2023-04-22T00:25:47;99958.89;;;5.30;64.79
51528;BME280;37612;51.768;21.590;2023-04-22T00:29:50;99955.21;;;5.22;65.40
51528;BME280;37612;51.768;21.590;2023-04-22T00:33:52;99953.00;;;5.14;65.51
51528;BME280;37612;51.768;21.590;2023-04-22T00:37:54;99952.80;;;5.08;65.66
51528;BME280;37612;51.768;21.590;2023-04-22T00:41:56;99954.80;;;5.04;65.46
51528;BME280;37612;51.768;21.590;2023-04-22T00:45:59;99955.45;;;5.02;65.91
51528;BME280;37612;51.768;21.590;2023-04-22T00:50:01;99953.42;;;4.96;65.97
51528;BME280;37612;51.768;21.590;2023-04-22T00:54:04;99955.42;;;4.89;66.90
51528;BME280;37612;51.768;21.590;2023-04-22T00:58:07;99957.45;;;4.77;66.71
51528;BME280;37612;51.768;21.590;2023-04-22T01:02:13;99957.95;;;4.68;67.27
51528;BME280;37612;51.768;21.590;2023-04-22T01:06:18;99959.92;;;4.66;67.11
51528;BME280;37612;51.768;21.590;2023-04-22T01:10:21;99956.73;;;4.59;68.32
51528;BME280;37612;51.768;21.590;2023-04-22T01:14:24;99955.45;;;4.51;68.36
51528;BME280;37612;51.768;21.590;2023-04-22T01:18:26;99955.16;;;4.43;68.10
51528;BME280;37612;51.768;21.590;2023-04-22T01:22:34;99956.70;;;4.37;68.27
51528;BME280;37612;51.768;21.590;2023-04-22T01:26:37;99959.37;;;4.30;68.04
51528;BME280;37612;51.768;21.590;2023-04-22T01:30:41;99959.48;;;4.23;68.42
51528;BME280;37612;51.768;21.590;2023-04-22T01:34:44;99956.95;;;4.15;68.51
51528;BME280;37612;51.768;21.590;2023-04-22T01:38:46;99956.93;;;4.09;68.78
51528;BME280;37612;51.768;21.590;2023-04-22T01:42:49;99961.17;;;4.02;69.07
51528;BME280;37612;51.768;21.590;2023-04-22T01:46:51;99963.98;;;4.00;69.25
51528;BME280;37612;51.768;21.590;2023-04-22T01:50:53;99964.98;;;3.97;69.59
51528;BME280;37612;51.768;21.590;2023-04-22T01:54:57;99958.19;;;3.84;69.50
51528;BME280;37612;51.768;21.590;2023-04-22T01:58:59;99958.90;;;3.71;69.80
51528;BME280;37612;51.768;21.590;2023-04-22T02:03:01;99958.79;;;3.63;69.89
51528;BME280;37612;51.768;21.590;2023-04-22T02:07:03;99958.48;;;3.62;70.26
51528;BME280;37612;51.768;21.590;2023-04-22T02:11:05;99958.40;;;3.62;70.46
51528;BME280;37612;51.768;21.590;2023-04-22T02:15:08;99959.05;;;3.58;70.50
51528;BME280;37612;51.768;21.590;2023-04-22T02:19:10;99953.70;;;3.52;70.61
51528;BME280;37612;51.768;21.590;2023-04-22T02:23:12;99949.45;;;3.42;70.69
51528;BME280;37612;51.768;21.590;2023-04-22T02:27:15;99946.58;;;3.37;70.78
51528;BME280;37612;51.768;21.590;2023-04-22T02:31:17;99949.73;;;3.40;71.48
51528;BME280;37612;51.768;21.590;2023-04-22T02:35:19;99950.17;;;3.42;71.73
51528;BME280;37612;51.768;21.590;2023-04-22T02:39:21;99947.17;;;3.38;71.54
51528;BME280;37612;51.768;21.590;2023-04-22T02:43:23;99945.89;;;3.32;72.13
51528;BME280;37612;51.768;21.590;2023-04-22T02:47:25;99945.36;;;3.28;72.17
51528;BME280;37612;51.768;21.590;2023-04-22T02:51:27;99944.55;;;3.23;72.09
51528;BME280;37612;51.768;21.590;2023-04-22T02:55:29;99944.59;;;3.23;72.46
51528;BME280;37612;51.768;21.590;2023-04-22T02:59:33;99947.02;;;3.25;72.76
51528;BME280;37612;51.768;21.590;2023-04-22T03:03:36;99946.85;;;3.20;72.74
51528;BME280;37612;51.768;21.590;2023-04-22T03:07:38;99944.70;;;3.15;72.71
51528;BME280;37612;51.768;21.590;2023-04-22T03:11:40;99943.08;;;3.10;73.01
51528;BME280;37612;51.768;21.590;2023-04-22T03:15:42;99947.55;;;3.11;72.94
51528;BME280;37612;51.768;21.590;2023-04-22T03:19:46;99948.33;;;3.05;72.95
51528;BME280;37612;51.768;21.590;2023-04-22T03:23:48;99955.13;;;2.98;73.69
51528;BME280;37612;51.768;21.590;2023-04-22T03:27:50;99955.73;;;2.93;73.37
51528;BME280;37612;51.768;21.590;2023-04-22T03:31:52;99955.36;;;2.89;73.49
51528;BME280;37612;51.768;21.590;2023-04-22T03:35:54;99956.87;;;2.87;73.83
51528;BME280;37612;51.768;21.590;2023-04-22T03:39:56;99953.78;;;2.88;73.80
51528;BME280;37612;51.768;21.590;2023-04-22T03:43:58;99959.59;;;2.88;74.16
51528;BME280;37612;51.768;21.590;2023-04-22T03:48:00;99960.14;;;2.85;74.14
51528;BME280;37612;51.768;21.590;2023-04-22T03:52:03;99962.57;;;2.84;74.34
51528;BME280;37612;51.768;21.590;2023-04-22T03:56:05;99965.84;;;2.91;74.36
51528;BME280;37612;51.768;21.590;2023-04-22T04:00:07;99969.04;;;2.93;74.62
51528;BME280;37612;51.768;21.590;2023-04-22T04:04:09;99970.95;;;2.91;74.39
51528;BME280;37612;51.768;21.590;2023-04-22T04:08:11;99966.89;;;2.87;75.27
51528;BME280;37612;51.768;21.590;2023-04-22T04:12:13;99969.36;;;2.88;75.18
51528;BME280;37612;51.768;21.590;2023-04-22T04:16:16;99975.38;;;2.95;75.32
51528;BME280;37612;51.768;21.590;2023-04-22T04:20:18;99978.91;;;3.04;75.04
51528;BME280;37612;51.768;21.590;2023-04-22T04:24:20;99985.85;;;3.06;75.37
51528;BME280;37612;51.768;21.590;2023-04-22T04:28:22;99988.48;;;3.09;75.67
51528;BME280;37612;51.768;21.590;2023-04-22T04:32:25;99989.95;;;3.11;75.74
51528;BME280;37612;51.768;21.590;2023-04-22T04:36:27;99988.87;;;3.19;76.06
51528;BME280;37612;51.768;21.590;2023-04-22T04:40:30;99993.73;;;3.29;75.29
51528;BME280;37612;51.768;21.590;2023-04-22T04:44:32;99995.77;;;3.36;75.70
51528;BME280;37612;51.768;21.590;2023-04-22T04:48:35;100000.28;;;3.51;76.19
51528;BME280;37612;51.768;21.590;2023-04-22T04:52:37;99999.88;;;3.74;76.41
51528;BME280;37612;51.768;21.590;2023-04-22T04:56:39;99998.67;;;4.06;76.22
51528;BME280;37612;51.768;21.590;2023-04-22T05:00:41;100001.20;;;4.44;76.29
51528;BME280;37612;51.768;21.590;2023-04-22T05:04:43;99998.60;;;4.75;76.15
51528;BME280;37612;51.768;21.590;2023-04-22T05:08:46;99999.55;;;4.99;75.96
51528;BME280;37612;51.768;21.590;2023-04-22T05:12:48;99993.31;;;5.09;75.33
51528;BME280;37612;51.768;21.590;2023-04-22T05:16:50;99994.36;;;5.19;75.54
51528;BME280;37612;51.768;21.590;2023-04-22T05:20:52;99997.09;;;5.29;75.97
51528;BME280;37612;51.768;21.590;2023-04-22T05:24:54;99993.70;;;5.47;75.15
51528;BME280;37612;51.768;21.590;2023-04-22T05:28:56;99996.69;;;5.72;75.10
51528;BME280;37612;51.768;21.590;2023-04-22T05:32:58;99993.06;;;5.98;74.48
51528;BME280;37612;51.768;21.590;2023-04-22T05:37:03;99991.08;;;6.34;73.89
51528;BME280;37612;51.768;21.590;2023-04-22T05:41:06;99993.50;;;6.63;74.06
51528;BME280;37612;51.768;21.590;2023-04-22T05:45:08;99994.22;;;6.87;74.07
51528;BME280;37612;51.768;21.590;2023-04-22T05:49:11;99995.55;;;7.06;73.36
51528;BME280;37612;51.768;21.590;2023-04-22T05:53:13;99997.79;;;7.28;73.09
51528;BME280;37612;51.768;21.590;2023-04-22T05:57:15;99999.27;;;7.73;72.97
51528;BME280;37612;51.768;21.590;2023-04-22T06:01:17;99996.15;;;8.08;72.20
51528;BME280;37612;51.768;21.590;2023-04-22T06:05:20;99993.92;;;8.39;72.43
51528;BME280;37612;51.768;21.590;2023-04-22T06:09:22;99996.05;;;8.63;72.06
51528;BME280;37612;51.768;21.590;2023-04-22T06:13:24;99999.46;;;8.92;72.08
51528;BME280;37612;51.768;21.590;2023-04-22T06:17:26;99999.64;;;9.21;71.82
51528;BME280;37612;51.768;21.590;2023-04-22T06:21:28;99998.77;;;9.39;71.21
51528;BME280;37612;51.768;21.590;2023-04-22T06:25:31;99999.15;;;9.57;71.02
51528;BME280;37612;51.768;21.590;2023-04-22T06:29:33;99995.93;;;9.74;70.95
51528;BME280;37612;51.768;21.590;2023-04-22T06:33:35;99989.02;;;9.94;70.71
51528;BME280;37612;51.768;21.590;2023-04-22T06:37:37;99995.34;;;10.17;70.56
51528;BME280;37612;51.768;21.590;2023-04-22T06:41:39;99993.60;;;10.38;70.31
51528;BME280;37612;51.768;21.590;2023-04-22T06:45:44;99992.66;;;10.64;69.89
51528;BME280;37612;51.768;21.590;2023-04-22T06:49:47;99991.69;;;11.01;68.88
51528;BME280;37612;51.768;21.590;2023-04-22T06:53:49;99987.18;;;11.38;67.99
51528;BME280;37612;51.768;21.590;2023-04-22T06:57:51;99989.61;;;11.88;67.63
51528;BME280;37612;51.768;21.590;2023-04-22T07:01:53;99987.31;;;12.40;67.14
51528;BME280;37612;51.768;21.590;2023-04-22T07:05:55;99988.19;;;12.89;67.10
51528;BME280;37612;51.768;21.590;2023-04-22T07:09:57;99985.76;;;13.58;67.22
51528;BME280;37612;51.768;21.590;2023-04-22T07:13:59;99985.16;;;14.18;66.16
51528;BME280;37612;51.768;21.590;2023-04-22T07:18:01;99984.66;;;14.54;65.49
51528;BME280;37612;51.768;21.590;2023-04-22T07:22:04;99985.13;;;14.60;64.15
51528;BME280;37612;51.768;21.590;2023-04-22T07:26:07;99981.98;;;14.80;63.42
51528;BME280;37612;51.768;21.590;2023-04-22T07:30:10;99981.20;;;15.27;62.24
51528;BME280;37612;51.768;21.590;2023-04-22T07:34:12;99979.68;;;15.88;61.33
51528;BME280;37612;51.768;21.590;2023-04-22T07:38:15;99974.63;;;16.51;60.02
51528;BME280;37612;51.768;21.590;2023-04-22T07:42:17;99974.95;;;16.98;57.99
51528;BME280;37612;51.768;21.590;2023-04-22T07:46:19;99973.94;;;17.44;56.07
51528;BME280;37612;51.768;21.590;2023-04-22T07:50:21;99966.42;;;17.65;52.81
51528;BME280;37612;51.768;21.590;2023-04-22T07:54:23;99965.86;;;17.73;49.14
51528;BME280;37612;51.768;21.590;2023-04-22T07:58:26;99969.52;;;17.73;48.41
51528;BME280;37612;51.768;21.590;2023-04-22T08:02:28;99971.14;;;18.02;49.76
51528;BME280;37612;51.768;21.590;2023-04-22T08:06:31;99971.91;;;18.39;47.54
51528;BME280;37612;51.768;21.590;2023-04-22T08:10:33;99969.57;;;18.52;46.34
51528;BME280;37612;51.768;21.590;2023-04-22T08:14:35;99969.66;;;18.63;45.79
51528;BME280;37612;51.768;21.590;2023-04-22T08:18:37;99968.52;;;18.74;44.56
51528;BME280;37612;51.768;21.590;2023-04-22T08:22:40;99971.89;;;18.90;44.62
51528;BME280;37612;51.768;21.590;2023-04-22T08:26:43;99965.88;;;19.02;42.66
51528;BME280;37612;51.768;21.590;2023-04-22T08:30:45;99965.22;;;19.00;41.32
51528;BME280;37612;51.768;21.590;2023-04-22T08:34:47;99963.63;;;19.02;40.67
51528;BME280;37612;51.768;21.590;2023-04-22T08:38:49;99965.48;;;18.89;38.82
51528;BME280;37612;51.768;21.590;2023-04-22T08:42:51;99964.70;;;18.73;38.99
51528;BME280;37612;51.768;21.590;2023-04-22T08:46:54;99962.83;;;18.84;39.89
51528;BME280;37612;51.768;21.590;2023-04-22T08:50:57;99962.60;;;19.08;38.66
51528;BME280;37612;51.768;21.590;2023-04-22T08:54:59;99959.58;;;19.14;38.31
51528;BME280;37612;51.768;21.590;2023-04-22T08:59:02;99956.59;;;19.23;38.90
51528;BME280;37612;51.768;21.590;2023-04-22T09:03:06;99957.09;;;19.46;39.67
51528;BME280;37612;51.768;21.590;2023-04-22T09:07:09;99951.17;;;19.82;39.25
51528;BME280;37612;51.768;21.590;2023-04-22T09:11:12;99953.62;;;20.13;39.45
51528;BME280;37612;51.768;21.590;2023-04-22T09:15:14;99955.04;;;20.28;38.33
51528;BME280;37612;51.768;21.590;2023-04-22T09:19:17;99952.89;;;19.97;37.78
51528;BME280;37612;51.768;21.590;2023-04-22T09:23:20;99946.70;;;20.08;38.13
51528;BME280;37612;51.768;21.590;2023-04-22T09:27:23;99945.08;;;20.12;37.67
51528;BME280;37612;51.768;21.590;2023-04-22T09:31:27;99942.88;;;20.00;37.52
51528;BME280;37612;51.768;21.590;2023-04-22T09:39:33;99940.95;;;19.76;37.35
51528;BME280;37612;51.768;21.590;2023-04-22T09:43:37;99937.27;;;19.61;36.93
51528;BME280;37612;51.768;21.590;2023-04-22T09:47:39;99929.23;;;19.33;37.04
51528;BME280;37612;51.768;21.590;2023-04-22T09:51:41;99923.49;;;19.22;38.00
51528;BME280;37612;51.768;21.590;2023-04-22T09:55:48;99921.51;;;19.15;38.29
51528;BME280;37612;51.768;21.590;2023-04-22T09:59:52;99917.05;;;19.15;38.22
51528;BME280;37612;51.768;21.590;2023-04-22T10:03:55;99915.35;;;19.17;37.96
51528;BME280;37612;51.768;21.590;2023-04-22T10:07:57;99922.23;;;19.09;37.39
51528;BME280;37612;51.768;21.590;2023-04-22T10:12:00;99915.36;;;18.92;37.16
51528;BME280;37612;51.768;21.590;2023-04-22T10:16:02;99909.82;;;18.75;37.72
51528;BME280;37612;51.768;21.590;2023-04-22T10:20:09;99904.42;;;18.95;39.02
51528;BME280;37612;51.768;21.590;2023-04-22T10:24:18;99905.30;;;19.29;39.06
51528;BME280;37612;51.768;21.590;2023-04-22T10:28:23;99903.09;;;19.55;38.93
51528;BME280;37612;51.768;21.590;2023-04-22T10:32:26;99902.64;;;19.72;38.50
51528;BME280;37612;51.768;21.590;2023-04-22T10:36:31;99900.42;;;19.38;37.09
51528;BME280;37612;51.768;21.590;2023-04-22T10:40:33;99900.15;;;18.99;37.04
51528;BME280;37612;51.768;21.590;2023-04-22T10:44:53;99901.57;;;18.57;36.92
51528;BME280;37612;51.768;21.590;2023-04-22T10:49:19;99900.44;;;18.25;37.47
51528;BME280;37612;51.768;21.590;2023-04-22T10:53:43;99895.34;;;18.03;37.25
51528;BME280;37612;51.768;21.590;2023-04-22T10:57:52;99891.41;;;17.89;37.77
51528;BME280;37612;51.768;21.590;2023-04-22T11:02:00;99891.48;;;17.85;37.71
51528;BME280;37612;51.768;21.590;2023-04-22T11:06:18;99888.62;;;17.96;38.03
51528;BME280;37612;51.768;21.590;2023-04-22T11:10:43;99886.31;;;18.24;37.65
51528;BME280;37612;51.768;21.590;2023-04-22T11:14:47;99883.38;;;18.29;37.91
51528;BME280;37612;51.768;21.590;2023-04-22T11:18:52;99879.59;;;18.51;38.58
51528;BME280;37612;51.768;21.590;2023-04-22T11:22:57;99873.48;;;18.77;38.35
51528;BME280;37612;51.768;21.590;2023-04-22T11:26:59;99874.76;;;19.04;38.01
51528;BME280;37612;51.768;21.590;2023-04-22T11:31:07;99871.30;;;19.39;38.01
51528;BME280;37612;51.768;21.590;2023-04-22T11:35:16;99870.47;;;19.66;37.74
51528;BME280;37612;51.768;21.590;2023-04-22T11:39:20;99865.45;;;19.70;36.39
51528;BME280;37612;51.768;21.590;2023-04-22T11:43:23;99863.27;;;19.54;36.20
51528;BME280;37612;51.768;21.590;2023-04-22T11:47:28;99855.42;;;19.72;36.29
51528;BME280;37612;51.768;21.590;2023-04-22T11:51:31;99857.33;;;19.84;35.50
51528;BME280;37612;51.768;21.590;2023-04-22T11:55:38;99854.60;;;19.90;35.52
51528;BME280;37612;51.768;21.590;2023-04-22T11:59:41;99857.56;;;19.89;34.69
51528;BME280;37612;51.768;21.590;2023-04-22T12:03:43;99859.28;;;19.91;34.40
51528;BME280;37612;51.768;21.590;2023-04-22T12:07:45;99851.27;;;19.97;34.04
51528;BME280;37612;51.768;21.590;2023-04-22T12:11:50;99853.89;;;20.00;33.29
51528;BME280;37612;51.768;21.590;2023-04-22T12:15:54;99848.33;;;20.05;33.81
51528;BME280;37612;51.768;21.590;2023-04-22T12:19:56;99851.29;;;20.30;33.80
51528;BME280;37612;51.768;21.590;2023-04-22T12:24:00;99852.02;;;20.34;33.55
51528;BME280;37612;51.768;21.590;2023-04-22T12:28:07;99851.48;;;20.22;32.73
51528;BME280;37612;51.768;21.590;2023-04-22T12:32:09;99847.39;;;20.14;33.58
51528;BME280;37612;51.768;21.590;2023-04-22T12:36:11;99845.16;;;20.25;33.33
51528;BME280;37612;51.768;21.590;2023-04-22T12:40:14;99841.19;;;19.97;32.91
51528;BME280;37612;51.768;21.590;2023-04-22T12:44:16;99839.00;;;19.81;33.17
51528;BME280;37612;51.768;21.590;2023-04-22T12:48:18;99837.31;;;19.70;33.56
51528;BME280;37612;51.768;21.590;2023-04-22T12:52:20;99839.73;;;19.72;33.07
51528;BME280;37612;51.768;21.590;2023-04-22T12:56:22;99837.86;;;19.72;33.10
51528;BME280;37612;51.768;21.590;2023-04-22T13:00:24;99829.58;;;19.64;33.07
51528;BME280;37612;51.768;21.590;2023-04-22T13:04:27;99826.96;;;19.72;33.76
51528;BME280;37612;51.768;21.590;2023-04-22T13:08:30;99827.63;;;19.64;33.42
51528;BME280;37612;51.768;21.590;2023-04-22T13:12:35;99825.36;;;19.52;33.41
51528;BME280;37612;51.768;21.590;2023-04-22T13:16:37;99824.71;;;19.61;33.26
51528;BME280;37612;51.768;21.590;2023-04-22T13:20:39;99820.84;;;19.64;32.92
51528;BME280;37612;51.768;21.590;2023-04-22T13:24:43;99818.17;;;19.71;32.96
51528;BME280;37612;51.768;21.590;2023-04-22T13:28:45;99818.54;;;19.77;32.73
51528;BME280;37612;51.768;21.590;2023-04-22T13:32:47;99814.00;;;19.91;33.67
51528;BME280;37612;51.768;21.590;2023-04-22T13:36:49;99814.34;;;20.01;34.09
51528;BME280;37612;51.768;21.590;2023-04-22T13:40:52;99812.45;;;19.98;34.32
51528;BME280;37612;51.768;21.590;2023-04-22T13:44:54;99808.16;;;19.84;33.98
51528;BME280;37612;51.768;21.590;2023-04-22T13:48:56;99810.23;;;19.72;34.36
51528;BME280;37612;51.768;21.590;2023-04-22T13:52:59;99813.65;;;19.76;34.84
51528;BME280;37612;51.768;21.590;2023-04-22T13:57:01;99806.84;;;19.95;34.92
51528;BME280;37612;51.768;21.590;2023-04-22T14:01:09;99808.11;;;20.10;34.17
51528;BME280;37612;51.768;21.590;2023-04-22T14:05:11;99808.08;;;20.11;33.87
51528;BME280;37612;51.768;21.590;2023-04-22T14:09:14;99812.85;;;20.20;33.82
51528;BME280;37612;51.768;21.590;2023-04-22T14:13:16;99806.41;;;20.30;33.71
51528;BME280;37612;51.768;21.590;2023-04-22T14:17:18;99802.70;;;20.24;33.12
51528;BME280;37612;51.768;21.590;2023-04-22T14:21:24;99798.67;;;20.28;33.49
51528;BME280;37612;51.768;21.590;2023-04-22T14:25:36;99802.45;;;20.42;32.97
51528;BME280;37612;51.768;21.590;2023-04-22T14:29:38;99802.23;;;20.36;32.75
51528;BME280;37612;51.768;21.590;2023-04-22T14:33:40;99800.79;;;20.39;32.55
51528;BME280;37612;51.768;21.590;2023-04-22T14:37:43;99796.55;;;20.36;32.08
51528;BME280;37612;51.768;21.590;2023-04-22T14:41:48;99794.87;;;20.36;32.23
51528;BME280;37612;51.768;21.590;2023-04-22T14:46:00;99790.23;;;20.42;32.43
51528;BME280;37612;51.768;21.590;2023-04-22T14:50:02;99791.52;;;20.62;32.68
51528;BME280;37612;51.768;21.590;2023-04-22T14:54:05;99790.61;;;20.76;32.64
51528;BME280;37612;51.768;21.590;2023-04-22T14:58:07;99788.95;;;20.67;32.34
51528;BME280;37612;51.768;21.590;2023-04-22T15:02:21;99788.66;;;20.37;32.56
51528;BME280;37612;51.768;21.590;2023-04-22T15:06:23;99785.54;;;20.20;33.17
51528;BME280;37612;51.768;21.590;2023-04-22T15:10:25;99784.55;;;20.08;33.09
51528;BME280;37612;51.768;21.590;2023-04-22T15:14:27;99786.10;;;19.84;32.87
51528;BME280;37612;51.768;21.590;2023-04-22T15:18:29;99786.18;;;19.64;33.33
51528;BME280;37612;51.768;21.590;2023-04-22T15:22:32;99784.34;;;19.45;33.45
51528;BME280;37612;51.768;21.590;2023-04-22T15:26:34;99784.88;;;19.30;33.66
51528;BME280;37612;51.768;21.590;2023-04-22T15:30:36;99779.46;;;19.22;34.26
51528;BME280;37612;51.768;21.590;2023-04-22T15:34:39;99781.73;;;19.15;34.14
51528;BME280;37612;51.768;21.590;2023-04-22T15:38:41;99781.24;;;19.05;33.99
51528;BME280;37612;51.768;21.590;2023-04-22T15:42:43;99782.81;;;18.92;34.43
51528;BME280;37612;51.768;21.590;2023-04-22T15:46:45;99778.59;;;18.86;34.66
51528;BME280;37612;51.768;21.590;2023-04-22T15:50:47;99779.97;;;18.89;34.93
51528;BME280;37612;51.768;21.590;2023-04-22T15:54:49;99781.50;;;18.78;35.21
51528;BME280;37612;51.768;21.590;2023-04-22T15:58:51;99777.50;;;18.67;35.33
51528;BME280;37612;51.768;21.590;2023-04-22T16:02:53;99775.94;;;18.62;35.46
51528;BME280;37612;51.768;21.590;2023-04-22T16:06:55;99774.95;;;19.05;35.40
51528;BME280;37612;51.768;21.590;2023-04-22T16:11:01;99776.04;;;18.91;35.55
51528;BME280;37612;51.768;21.590;2023-04-22T16:15:04;99773.59;;;18.75;35.71
51528;BME280;37612;51.768;21.590;2023-04-22T16:19:09;99773.20;;;20.14;35.32
51528;BME280;37612;51.768;21.590;2023-04-22T16:23:11;99769.33;;;22.41;34.60
51528;BME280;37612;51.768;21.590;2023-04-22T16:27:18;99763.74;;;24.04;34.04
51528;BME280;37612;51.768;21.590;2023-04-22T16:31:20;99767.48;;;24.75;32.96
51528;BME280;37612;51.768;21.590;2023-04-22T16:35:23;99764.81;;;24.54;32.99
51528;BME280;37612;51.768;21.590;2023-04-22T16:39:25;99763.30;;;23.54;33.09
51528;BME280;37612;51.768;21.590;2023-04-22T16:43:27;99759.38;;;22.99;32.82
51528;BME280;37612;51.768;21.590;2023-04-22T16:47:29;99763.04;;;22.42;32.99
51528;BME280;37612;51.768;21.590;2023-04-22T16:51:31;99758.83;;;22.64;33.24
51528;BME280;37612;51.768;21.590;2023-04-22T16:55:35;99759.38;;;22.33;34.02
51528;BME280;37612;51.768;21.590;2023-04-22T16:59:59;99756.52;;;22.53;34.60
51528;BME280;37612;51.768;21.590;2023-04-22T17:04:18;99760.06;;;22.15;35.05
51528;BME280;37612;51.768;21.590;2023-04-22T17:08:29;99761.41;;;21.28;35.51
51528;BME280;37612;51.768;21.590;2023-04-22T17:12:45;99761.95;;;20.56;35.56
51528;BME280;37612;51.768;21.590;2023-04-22T17:16:50;99762.87;;;19.74;36.05
51528;BME280;37612;51.768;21.590;2023-04-22T17:20:52;99761.84;;;18.95;37.12
51528;BME280;37612;51.768;21.590;2023-04-22T17:24:54;99757.68;;;18.35;37.59
51528;BME280;37612;51.768;21.590;2023-04-22T17:28:58;99764.63;;;17.82;37.82
51528;BME280;37612;51.768;21.590;2023-04-22T17:33:00;99763.69;;;17.34;38.08
51528;BME280;37612;51.768;21.590;2023-04-22T17:37:02;99767.56;;;16.84;38.66
51528;BME280;37612;51.768;21.590;2023-04-22T17:41:04;99768.05;;;16.34;39.17
51528;BME280;37612;51.768;21.590;2023-04-22T17:45:06;99775.54;;;15.96;39.69
51528;BME280;37612;51.768;21.590;2023-04-22T17:49:09;99781.19;;;15.62;39.99
51528;BME280;37612;51.768;21.590;2023-04-22T17:53:15;99783.05;;;15.33;40.88
51528;BME280;37612;51.768;21.590;2023-04-22T17:57:17;99787.95;;;15.08;41.61
51528;BME280;37612;51.768;21.590;2023-04-22T18:01:19;99790.33;;;14.81;43.10
51528;BME280;37612;51.768;21.590;2023-04-22T18:05:23;99794.84;;;14.54;43.28
51528;BME280;37612;51.768;21.590;2023-04-22T18:09:26;99797.33;;;14.30;43.41
51528;BME280;37612;51.768;21.590;2023-04-22T18:13:34;99801.86;;;14.02;43.55
51528;BME280;37612;51.768;21.590;2023-04-22T18:17:36;99800.86;;;13.68;43.22
51528;BME280;37612;51.768;21.590;2023-04-22T18:21:38;99800.06;;;13.42;43.74
51528;BME280;37612;51.768;21.590;2023-04-22T18:25:44;99804.88;;;13.16;44.51
51528;BME280;37612;51.768;21.590;2023-04-22T18:29:48;99812.75;;;12.93;45.26
51528;BME280;37612;51.768;21.590;2023-04-22T18:33:53;99809.73;;;12.70;46.28
51528;BME280;37612;51.768;21.590;2023-04-22T18:37:56;99814.75;;;12.48;46.62
51528;BME280;37612;51.768;21.590;2023-04-22T18:42:18;99814.73;;;12.24;47.72
51528;BME280;37612;51.768;21.590;2023-04-22T18:46:25;99817.94;;;11.96;47.91
51528;BME280;37612;51.768;21.590;2023-04-22T18:51:08;99819.68;;;11.68;47.78
51528;BME280;37612;51.768;21.590;2023-04-22T18:55:10;99822.53;;;11.47;48.16
51528;BME280;37612;51.768;21.590;2023-04-22T18:59:14;99820.67;;;11.26;48.91
51528;BME280;37612;51.768;21.590;2023-04-22T19:03:20;99818.61;;;11.09;49.31
51528;BME280;37612;51.768;21.590;2023-04-22T19:07:24;99815.67;;;10.95;49.59
51528;BME280;37612;51.768;21.590;2023-04-22T19:11:26;99813.58;;;10.87;49.58
51528;BME280;37612;51.768;21.590;2023-04-22T19:15:28;99815.51;;;10.78;49.91
51528;BME280;37612;51.768;21.590;2023-04-22T19:19:32;99812.54;;;10.68;50.47
51528;BME280;37612;51.768;21.590;2023-04-22T19:23:35;99815.55;;;10.56;51.73
51528;BME280;37612;51.768;21.590;2023-04-22T19:27:38;99811.02;;;10.39;53.28
51528;BME280;37612;51.768;21.590;2023-04-22T19:31:54;99812.34;;;10.21;54.40
51528;BME280;37612;51.768;21.590;2023-04-22T19:36:01;99814.02;;;10.04;55.24
51528;BME280;37612;51.768;21.590;2023-04-22T19:40:06;99817.36;;;9.96;55.98
51528;BME280;37612;51.768;21.590;2023-04-22T19:44:12;99816.30;;;9.92;56.28
51528;BME280;37612;51.768;21.590;2023-04-22T19:48:17;99814.23;;;9.87;56.78
51528;BME280;37612;51.768;21.590;2023-04-22T19:52:21;99816.63;;;9.79;57.64
51528;BME280;37612;51.768;21.590;2023-04-22T19:56:26;99819.65;;;9.68;57.24
51528;BME280;37612;51.768;21.590;2023-04-22T20:00:31;99820.19;;;9.59;57.74
51528;BME280;37612;51.768;21.590;2023-04-22T20:04:36;99823.37;;;9.49;58.59
51528;BME280;37612;51.768;21.590;2023-04-22T20:08:39;99821.12;;;9.37;58.47
51528;BME280;37612;51.768;21.590;2023-04-22T20:12:45;99821.91;;;9.27;58.66
51528;BME280;37612;51.768;21.590;2023-04-22T20:16:57;99821.52;;;9.22;58.84
51528;BME280;37612;51.768;21.590;2023-04-22T20:21:01;99820.55;;;9.18;59.69
51528;BME280;37612;51.768;21.590;2023-04-22T20:25:14;99814.70;;;9.15;60.12
51528;BME280;37612;51.768;21.590;2023-04-22T20:29:18;99816.83;;;9.07;59.63
51528;BME280;37612;51.768;21.590;2023-04-22T20:33:22;99812.84;;;8.96;59.91
51528;BME280;37612;51.768;21.590;2023-04-22T20:37:25;99816.89;;;8.89;59.93
51528;BME280;37612;51.768;21.590;2023-04-22T20:41:37;99818.91;;;8.82;59.69
51528;BME280;37612;51.768;21.590;2023-04-22T20:45:43;99816.69;;;8.72;59.78
51528;BME280;37612;51.768;21.590;2023-04-22T20:49:46;99820.43;;;8.63;59.74
51528;BME280;37612;51.768;21.590;2023-04-22T20:53:48;99821.61;;;8.60;59.63
51528;BME280;37612;51.768;21.590;2023-04-22T20:57:51;99826.58;;;8.61;59.74
51528;BME280;37612;51.768;21.590;2023-04-22T21:01:54;99825.38;;;8.59;60.58
51528;BME280;37612;51.768;21.590;2023-04-22T21:05:56;99825.05;;;8.56;61.31
51528;BME280;37612;51.768;21.590;2023-04-22T21:10:00;99825.38;;;8.50;62.05
51528;BME280;37612;51.768;21.590;2023-04-22T21:14:03;99826.06;;;8.43;62.09
51528;BME280;37612;51.768;21.590;2023-04-22T21:18:07;99820.98;;;8.33;61.45
51528;BME280;37612;51.768;21.590;2023-04-22T21:22:11;99818.80;;;8.31;61.32
51528;BME280;37612;51.768;21.590;2023-04-22T21:26:16;99816.80;;;8.33;61.51